createdAt,value
2022-09-15T00:01:11.489Z,1.70
2022-09-15T00:03:40.278Z,1.63
2022-09-15T00:06:11.077Z,1.98
2022-09-15T00:08:39.261Z,2.00
2022-09-15T00:11:10.059Z,1.83
2022-09-15T00:13:39.683Z,1.92
2022-09-15T00:16:08.795Z,1.70
2022-09-15T00:18:38.217Z,1.70
2022-09-15T00:21:07.390Z,1.92
2022-09-15T00:23:37.018Z,1.83
2022-09-15T00:26:10.910Z,1.90
2022-09-15T00:28:39.353Z,1.52
2022-09-15T00:31:09.880Z,1.42
2022-09-15T00:33:38.889Z,1.80
2022-09-15T00:36:11.097Z,1.80
2022-09-15T00:38:40.830Z,1.67
2022-09-15T00:41:10.376Z,1.90
2022-09-15T00:43:48.206Z,1.60
2022-09-15T00:46:17.887Z,1.67
2022-09-15T00:48:49.967Z,1.80
2022-09-15T00:51:22.676Z,1.73
2022-09-15T00:53:52.838Z,1.70
2022-09-15T00:56:21.772Z,1.52
2022-09-15T00:58:53.435Z,1.55
2022-09-15T01:01:22.191Z,1.50
2022-09-15T01:03:50.347Z,1.50
2022-09-15T01:06:25.397Z,1.70
2022-09-15T01:09:03.191Z,1.63
2022-09-15T01:11:31.910Z,1.90
2022-09-15T01:13:59.853Z,1.83
2022-09-15T01:16:36.974Z,1.70
2022-09-15T01:19:23.254Z,1.80
2022-09-15T01:21:58.642Z,1.67
2022-09-15T01:24:52.542Z,1.70
2022-09-15T01:27:43.007Z,1.70
2022-09-15T01:30:15.397Z,1.42
2022-09-15T01:33:09.668Z,2.00
2022-09-15T01:35:52.220Z,1.65
2022-09-15T01:38:26.675Z,1.80
2022-09-15T01:40:59.855Z,1.65
2022-09-15T01:43:30.732Z,1.63
2022-09-15T01:46:03.171Z,1.70
2022-09-15T01:48:33.377Z,1.55
2022-09-15T01:51:04.958Z,1.77
2022-09-15T01:53:34.766Z,1.70
2022-09-15T01:56:07.106Z,1.67
2022-09-15T01:58:35.660Z,1.60
2022-09-15T02:01:09.353Z,1.90
2022-09-15T02:03:46.169Z,1.77
2022-09-15T02:06:20.909Z,2.00
2022-09-15T02:08:54.724Z,1.58
2022-09-15T02:11:25.840Z,1.70
2022-09-15T02:14:01.528Z,2.25
2022-09-15T02:16:35.070Z,2.00
2022-09-15T02:19:12.961Z,2.00
2022-09-15T02:21:53.990Z,1.70
2022-09-15T02:24:29.961Z,2.00
2022-09-15T02:26:59.508Z,2.00
2022-09-15T02:29:28.848Z,1.83
2022-09-15T02:32:06.832Z,1.63
2022-09-15T02:34:39.145Z,1.88
2022-09-15T02:37:09.355Z,1.80
2022-09-15T02:39:44.782Z,1.90
2022-09-15T02:42:13.241Z,2.10
2022-09-15T02:44:41.346Z,2.00
2022-09-15T02:47:11.154Z,2.10
2022-09-15T02:49:39.040Z,2.00
2022-09-15T02:52:07.439Z,2.00
2022-09-15T02:54:35.369Z,1.70
2022-09-15T02:57:03.399Z,1.70
2022-09-15T02:59:51.635Z,1.88
2022-09-15T03:02:21.347Z,1.75
2022-09-15T03:04:49.523Z,1.90
2022-09-15T03:07:18.431Z,1.75
2022-09-15T03:09:46.678Z,1.60
2022-09-15T03:12:14.777Z,1.83
2022-09-15T03:14:42.945Z,1.95
2022-09-15T03:17:11.101Z,1.70
2022-09-15T03:19:40.512Z,1.77
2022-09-15T03:22:09.492Z,1.77
2022-09-15T03:24:38.118Z,1.90
2022-09-15T03:27:06.548Z,1.70
2022-09-15T03:29:34.497Z,1.67
2022-09-15T03:32:03.103Z,1.73
2022-09-15T03:34:31.356Z,1.80
2022-09-15T03:37:00.642Z,1.90
2022-09-15T03:39:28.622Z,1.80
2022-09-15T03:41:56.754Z,1.83
2022-09-15T03:44:24.773Z,1.70
2022-09-15T03:46:53.053Z,2.10
2022-09-15T03:49:21.119Z,1.90
2022-09-15T03:51:49.063Z,1.85
2022-09-15T03:54:18.549Z,1.80
2022-09-15T03:56:47.456Z,1.83
2022-09-15T03:59:16.260Z,1.80
2022-09-15T04:01:44.604Z,1.98
2022-09-15T04:04:13.097Z,1.70
2022-09-15T04:06:41.685Z,1.80
2022-09-15T04:09:10.361Z,1.90
2022-09-15T04:11:40.991Z,2.00
2022-09-15T04:14:08.977Z,1.95
2022-09-15T04:16:36.957Z,1.90
2022-09-15T04:19:05.002Z,1.83
2022-09-15T04:21:33.047Z,2.28
2022-09-15T04:24:01.313Z,1.90
2022-09-15T04:26:31.978Z,2.17
2022-09-15T04:29:04.437Z,2.08
2022-09-15T04:31:33.490Z,2.15
2022-09-15T04:34:01.708Z,1.90
2022-09-15T04:36:31.614Z,2.25
2022-09-15T04:39:00.225Z,2.22
2022-09-15T04:41:28.623Z,1.80
2022-09-15T04:43:56.732Z,1.98
2022-09-15T04:46:26.443Z,1.70
2022-09-15T04:48:54.384Z,2.00
2022-09-15T04:51:24.036Z,1.70
2022-09-15T04:53:52.974Z,2.25
2022-09-15T04:56:22.793Z,1.95
2022-09-15T04:58:52.868Z,1.80
2022-09-15T05:01:23.841Z,1.90
2022-09-15T05:03:53.560Z,2.13
2022-09-15T05:06:24.420Z,1.80
2022-09-15T05:08:55.367Z,1.85
2022-09-15T05:11:24.407Z,1.98
2022-09-15T05:13:52.711Z,2.00
2022-09-15T05:16:22.669Z,2.00
2022-09-15T05:18:51.919Z,1.75
2022-09-15T05:21:23.287Z,2.03
2022-09-15T05:23:52.829Z,1.80
2022-09-15T05:26:23.303Z,1.80
2022-09-15T05:28:51.469Z,2.10
2022-09-15T05:31:23.067Z,1.80
2022-09-15T05:33:52.718Z,1.60
2022-09-15T05:36:25.438Z,1.77
2022-09-15T05:38:54.245Z,2.15
2022-09-15T05:41:22.208Z,1.90
2022-09-15T05:43:51.797Z,2.08
2022-09-15T05:46:20.716Z,2.28
2022-09-15T05:48:48.856Z,2.10
2022-09-15T05:51:16.842Z,2.03
2022-09-15T05:53:46.102Z,2.30
2022-09-15T05:56:16.091Z,2.22
2022-09-15T05:58:46.368Z,1.98
2022-09-15T06:01:17.317Z,2.38
2022-09-15T06:03:45.539Z,2.13
2022-09-15T06:06:14.028Z,2.00
2022-09-15T06:08:44.662Z,2.10
2022-09-15T06:11:16.955Z,1.90
2022-09-15T06:13:45.640Z,2.00
2022-09-15T06:16:15.311Z,2.00
2022-09-15T06:18:43.627Z,2.08
2022-09-15T06:21:13.800Z,2.20
2022-09-15T06:23:45.030Z,2.30
2022-09-15T06:26:19.704Z,1.98
2022-09-15T06:28:50.293Z,2.40
2022-09-15T06:31:19.515Z,2.15
2022-09-15T06:33:51.235Z,2.60
2022-09-15T06:36:20.837Z,2.58
2022-09-15T06:38:51.935Z,2.92
2022-09-15T06:41:21.767Z,3.13
2022-09-15T06:43:49.797Z,3.20
2022-09-15T06:46:19.836Z,4.63
2022-09-15T06:48:48.819Z,3.92
2022-09-15T06:51:18.930Z,3.85
2022-09-15T06:53:47.298Z,5.07
2022-09-15T06:56:17.510Z,4.90
2022-09-15T06:58:49.278Z,5.25
2022-09-15T07:01:21.924Z,5.20
2022-09-15T07:03:50.487Z,4.57
2022-09-15T07:06:18.950Z,3.97
2022-09-15T07:08:47.687Z,3.65
2022-09-15T07:11:16.056Z,3.70
2022-09-15T07:13:44.465Z,3.50
2022-09-15T07:16:16.093Z,3.50
2022-09-15T07:18:44.955Z,2.85
2022-09-15T07:21:16.221Z,2.70
2022-09-15T07:23:45.098Z,2.88
2022-09-15T07:26:15.078Z,1.85
2022-09-15T07:28:44.901Z,2.40
2022-09-15T07:31:16.963Z,2.60
2022-09-15T07:33:45.357Z,2.42
2022-09-15T07:36:13.613Z,2.55
2022-09-15T07:38:43.524Z,2.08
2022-09-15T07:41:13.551Z,2.28
2022-09-15T07:43:42.002Z,2.00
2022-09-15T07:46:10.012Z,2.05
2022-09-15T07:48:39.361Z,1.88
2022-09-15T07:51:07.422Z,1.98
2022-09-15T07:53:35.369Z,2.00
2022-09-15T07:56:03.743Z,2.13
2022-09-15T07:58:33.637Z,1.83
2022-09-15T08:01:05.758Z,1.90
2022-09-15T08:03:34.128Z,1.75
2022-09-15T08:06:04.756Z,2.15
2022-09-15T08:08:32.909Z,2.25
2022-09-15T08:11:00.812Z,1.85
2022-09-15T08:13:30.124Z,2.28
2022-09-15T08:16:06.420Z,1.80
2022-09-15T08:18:34.888Z,1.70
2022-09-15T08:21:07.655Z,2.08
2022-09-15T08:23:35.690Z,1.67
2022-09-15T08:26:06.132Z,1.80
2022-09-15T08:28:34.381Z,1.63
2022-09-15T08:31:03.974Z,2.30
2022-09-15T08:33:32.177Z,1.70
2022-09-15T08:36:03.404Z,1.90
2022-09-15T08:38:33.336Z,1.90
2022-09-15T08:41:04.783Z,2.00
2022-09-15T08:43:42.001Z,1.80
2022-09-15T08:46:16.168Z,1.75
2022-09-15T08:48:49.861Z,1.63
2022-09-15T08:51:27.264Z,1.70
2022-09-15T08:54:02.632Z,1.90
2022-09-15T08:56:31.853Z,1.80
2022-09-15T08:59:00.874Z,2.28
2022-09-15T09:01:51.140Z,1.67
2022-09-15T09:04:49.115Z,1.60
2022-09-15T09:07:33.675Z,2.00
2022-09-15T09:10:13.822Z,1.77
2022-09-15T09:12:57.249Z,2.03
2022-09-15T09:15:39.373Z,1.98
2022-09-15T09:18:28.407Z,2.50
2022-09-15T09:21:05.457Z,1.95
2022-09-15T09:23:47.928Z,1.92
2022-09-15T09:26:17.872Z,2.10
2022-09-15T09:28:52.229Z,1.85
2022-09-15T09:31:23.011Z,1.50
2022-09-15T09:34:03.287Z,2.03
2022-09-15T09:36:31.897Z,1.73
2022-09-15T09:38:59.889Z,1.67
2022-09-15T09:41:36.594Z,1.50
2022-09-15T09:44:06.917Z,1.92
2022-09-15T09:46:35.267Z,2.35
2022-09-15T09:49:07.649Z,2.17
2022-09-15T09:51:38.621Z,1.50
2022-09-15T09:54:11.801Z,1.40
2022-09-15T09:56:41.226Z,1.73
2022-09-15T09:59:33.740Z,1.67
2022-09-15T10:02:16.168Z,1.88
2022-09-15T10:04:45.849Z,2.10
2022-09-15T10:07:14.868Z,1.38
2022-09-15T10:09:52.592Z,1.90
2022-09-15T10:12:28.172Z,1.42
2022-09-15T10:14:58.501Z,1.35
2022-09-15T10:17:38.519Z,1.08
2022-09-15T10:20:21.505Z,1.55
2022-09-15T10:22:49.817Z,1.38
2022-09-15T10:25:55.158Z,1.05
2022-09-15T10:28:25.954Z,1.10
2022-09-15T10:31:03.417Z,1.52
2022-09-15T10:33:34.969Z,1.00
2022-09-15T10:36:08.930Z,1.40
2022-09-15T10:38:45.883Z,1.42
2022-09-15T10:41:24.660Z,1.58
2022-09-15T10:44:28.775Z,1.48
2022-09-15T10:47:04.143Z,1.40
2022-09-15T10:49:52.624Z,1.35
2022-09-15T10:52:33.048Z,1.40
2022-09-15T10:55:27.645Z,1.20
2022-09-15T10:58:20.436Z,1.40
2022-09-15T11:00:59.805Z,1.70
2022-09-15T11:03:56.746Z,1.40
2022-09-15T11:06:31.135Z,1.38
2022-09-15T11:09:17.573Z,1.25
2022-09-15T11:11:54.639Z,1.30
2022-09-15T11:14:37.617Z,1.30
2022-09-15T11:17:20.801Z,1.20
2022-09-15T11:20:05.776Z,1.52
2022-09-15T11:22:39.598Z,1.27
2022-09-15T11:25:15.240Z,1.30
2022-09-15T11:27:48.272Z,1.70
2022-09-15T11:30:19.527Z,1.33
2022-09-15T11:32:57.934Z,1.40
2022-09-15T11:35:46.248Z,1.50
2022-09-15T11:38:30.474Z,1.67
2022-09-15T11:41:15.461Z,1.80
2022-09-15T11:43:51.042Z,1.83
2022-09-15T11:46:26.941Z,1.60
2022-09-15T11:49:03.172Z,1.60
2022-09-15T11:51:41.692Z,1.85
2022-09-15T11:54:17.065Z,1.35
2022-09-15T11:56:47.625Z,1.60
2022-09-15T11:59:23.312Z,1.30
2022-09-15T12:01:59.280Z,1.90
2022-09-15T12:04:32.479Z,1.42
2022-09-15T12:07:09.839Z,1.70
2022-09-15T12:09:40.952Z,1.65
2022-09-15T12:12:15.269Z,1.50
2022-09-15T12:14:46.983Z,1.30
2022-09-15T12:17:19.335Z,1.58
2022-09-15T12:19:56.575Z,2.20
2022-09-15T12:22:30.816Z,3.67
2022-09-15T12:25:04.935Z,2.50
2022-09-15T12:27:32.952Z,1.40
2022-09-15T12:30:01.493Z,1.50
2022-09-15T12:32:30.621Z,1.60
2022-09-15T12:35:32.284Z,1.52
2022-09-15T12:38:01.211Z,1.73
2022-09-15T12:40:37.744Z,1.20
2022-09-15T12:43:22.968Z,1.30
2022-09-15T12:45:58.090Z,1.23
2022-09-15T12:48:29.964Z,1.73
2022-09-15T12:51:02.684Z,1.75
2022-09-15T12:56:10.590Z,1.58
2022-09-15T12:58:47.302Z,1.20
2022-09-15T13:01:48.610Z,1.40
2022-09-15T13:04:54.576Z,1.52
2022-09-15T13:07:36.919Z,1.40
2022-09-15T13:10:28.185Z,1.23
2022-09-15T13:13:09.026Z,1.20
2022-09-15T13:15:42.101Z,1.90
2022-09-15T13:18:13.354Z,2.03
2022-09-15T13:20:50.582Z,1.48
2022-09-15T13:23:23.973Z,1.65
2022-09-15T13:25:57.303Z,1.25
2022-09-15T13:28:25.907Z,1.10
2022-09-15T13:31:24.611Z,1.35
2022-09-15T13:38:07.837Z,1.10
2022-09-15T13:41:08.647Z,0.90
2022-09-15T13:43:57.947Z,1.23
2022-09-15T13:46:42.432Z,1.10
2022-09-15T13:49:32.178Z,1.10
2022-09-15T13:52:08.229Z,1.25
2022-09-15T13:54:36.279Z,1.40
2022-09-15T13:57:05.723Z,1.20
2022-09-15T13:59:34.861Z,1.00
2022-09-15T14:02:09.100Z,0.90
2022-09-15T14:04:37.201Z,0.90
2022-09-15T14:07:05.566Z,1.13
2022-09-15T14:09:40.104Z,1.50
2022-09-15T14:12:14.991Z,0.98
2022-09-15T14:14:46.514Z,0.90
2022-09-15T14:17:24.059Z,1.52
2022-09-15T14:19:54.631Z,2.00
2022-09-15T14:22:36.816Z,1.60
2022-09-15T14:25:07.886Z,1.92
2022-09-15T14:27:39.019Z,1.20
2022-09-15T14:30:10.464Z,1.60
2022-09-15T14:32:44.854Z,1.70
2022-09-15T14:35:19.754Z,1.50
2022-09-15T14:37:50.124Z,2.50
2022-09-15T14:40:20.870Z,2.10
2022-09-15T14:42:50.256Z,1.73
2022-09-15T14:48:15.196Z,1.88
2022-09-15T14:50:45.708Z,1.70
2022-09-15T14:53:18.318Z,1.80
2022-09-15T14:55:53.981Z,1.88
2022-09-15T14:58:28.962Z,1.40
2022-09-15T15:01:03.229Z,1.90
2022-09-15T15:03:39.493Z,1.90
2022-09-15T15:09:04.582Z,1.70
2022-09-15T15:11:34.624Z,1.65
2022-09-15T15:14:06.841Z,1.50
2022-09-15T15:16:35.043Z,1.63
2022-09-15T15:19:03.236Z,1.23
2022-09-15T15:21:40.024Z,1.30
2022-09-15T15:24:19.784Z,1.30
2022-09-15T15:26:49.026Z,1.10
2022-09-15T15:29:43.197Z,1.10
2022-09-15T15:32:16.658Z,1.15
2022-09-15T15:34:52.358Z,1.70
2022-09-15T15:37:26.745Z,1.50
2022-09-15T15:39:56.040Z,1.38
2022-09-15T15:42:25.647Z,1.40
2022-09-15T15:45:03.481Z,1.50
2022-09-15T15:47:33.310Z,1.25
2022-09-15T15:50:13.377Z,1.40
2022-09-15T15:52:43.714Z,1.17
2022-09-15T15:55:14.764Z,1.23
2022-09-15T15:57:43.285Z,1.42
2022-09-15T16:00:22.864Z,1.33
2022-09-15T16:02:51.810Z,1.58
2022-09-15T16:05:20.794Z,1.33
2022-09-15T16:07:50.642Z,1.70
2022-09-15T16:10:21.558Z,1.40
2022-09-15T16:12:49.520Z,1.30
2022-09-15T16:15:21.148Z,1.45
2022-09-15T16:17:50.116Z,1.55
2022-09-15T16:20:19.740Z,1.27
2022-09-15T16:22:47.794Z,1.10
2022-09-15T16:25:19.987Z,1.75
2022-09-15T16:27:47.884Z,1.58
2022-09-15T16:30:15.906Z,1.58
2022-09-15T16:32:45.194Z,1.63
2022-09-15T16:35:23.365Z,1.50
2022-09-15T16:37:51.486Z,1.35
2022-09-15T16:40:19.443Z,1.50
2022-09-15T16:42:48.585Z,1.40
2022-09-15T16:45:26.369Z,1.40
2022-09-15T16:47:55.686Z,1.50
2022-09-15T16:50:23.887Z,1.30
2022-09-15T16:52:53.028Z,1.50
2022-09-15T16:55:34.867Z,1.50
2022-09-15T16:58:03.704Z,1.52
2022-09-15T17:00:34.054Z,1.23
2022-09-15T17:03:03.747Z,1.63
2022-09-15T17:05:35.819Z,1.70
2022-09-15T17:08:04.355Z,1.63
2022-09-15T17:10:33.069Z,1.50
2022-09-15T17:13:01.508Z,1.60
2022-09-15T17:15:31.392Z,2.15
2022-09-15T17:17:59.502Z,1.50
2022-09-15T17:20:28.989Z,1.60
2022-09-15T17:22:57.351Z,1.95
2022-09-15T17:25:31.199Z,1.98
2022-09-15T17:28:00.069Z,1.80
2022-09-15T17:30:29.856Z,1.50
2022-09-15T17:33:05.529Z,1.42
2022-09-15T17:35:36.603Z,1.83
2022-09-15T17:38:05.897Z,1.40
2022-09-15T17:40:35.005Z,1.83
2022-09-15T17:43:03.564Z,1.90
2022-09-15T17:45:34.321Z,1.70
2022-09-15T17:48:03.757Z,1.50
2022-09-15T17:50:35.788Z,1.35
2022-09-15T17:53:03.750Z,1.80
2022-09-15T17:55:33.164Z,1.40
2022-09-15T17:58:02.664Z,1.63
2022-09-15T18:00:32.141Z,1.30
2022-09-15T18:03:03.129Z,1.50
2022-09-15T18:05:34.943Z,1.50
2022-09-15T18:08:05.018Z,1.35
2022-09-15T18:10:35.046Z,1.17
2022-09-15T18:13:04.099Z,1.20
2022-09-15T18:15:34.584Z,1.52
2022-09-15T18:18:08.457Z,1.45
2022-09-15T18:20:37.833Z,1.38
2022-09-15T18:23:05.863Z,1.42
2022-09-15T18:25:36.911Z,1.27
2022-09-15T18:28:07.152Z,1.30
2022-09-15T18:30:40.530Z,1.60
2022-09-15T18:33:09.825Z,1.30
2022-09-15T18:35:41.236Z,1.33
2022-09-15T18:38:09.771Z,1.60
2022-09-15T18:40:37.988Z,1.27
2022-09-15T18:43:06.129Z,1.50
2022-09-15T18:45:34.163Z,1.30
2022-09-15T18:48:02.457Z,1.30
2022-09-15T18:50:30.548Z,1.30
2022-09-15T18:52:59.944Z,1.58
2022-09-15T18:55:28.280Z,1.40
2022-09-15T18:58:00.770Z,1.45
2022-09-15T19:00:29.226Z,1.20
2022-09-15T19:02:58.523Z,1.00
2022-09-15T19:05:27.390Z,1.00
2022-09-15T19:07:55.598Z,1.10
2022-09-15T19:10:26.693Z,1.17
2022-09-15T19:12:54.944Z,1.27
2022-09-15T19:15:24.416Z,1.10
2022-09-15T19:17:52.805Z,1.20
2022-09-15T19:20:21.113Z,1.45
2022-09-15T19:22:51.253Z,1.17
2022-09-15T19:25:19.306Z,1.63
2022-09-15T19:27:49.134Z,1.30
2022-09-15T19:30:17.187Z,1.40
2022-09-15T19:32:45.612Z,1.30
2022-09-15T19:35:14.324Z,1.55
2022-09-15T19:37:43.267Z,1.50
2022-09-15T19:40:13.920Z,1.30
2022-09-15T19:42:43.162Z,1.30
2022-09-15T19:45:13.533Z,1.30
2022-09-15T19:47:42.246Z,1.15
2022-09-15T19:50:12.543Z,1.13
2022-09-15T19:52:41.119Z,1.40
2022-09-15T19:55:10.615Z,1.50
2022-09-15T19:57:42.213Z,1.50
2022-09-15T20:00:16.084Z,1.42
2022-09-15T20:02:48.124Z,1.75
2022-09-15T20:05:34.378Z,1.60
2022-09-15T20:08:03.735Z,1.38
2022-09-15T20:10:34.493Z,1.52
2022-09-15T20:13:02.498Z,1.50
2022-09-15T20:15:31.746Z,1.60
2022-09-15T20:17:59.626Z,1.23
2022-09-15T20:20:27.781Z,1.25
2022-09-15T20:22:55.773Z,1.20
2022-09-15T20:25:23.969Z,1.60
2022-09-15T20:27:52.572Z,1.30
2022-09-15T20:30:20.708Z,1.58
2022-09-15T20:32:50.039Z,1.50
2022-09-15T20:35:18.555Z,1.30
2022-09-15T20:37:46.979Z,1.33
2022-09-15T20:40:14.926Z,1.40
2022-09-15T20:42:43.179Z,1.40
2022-09-15T20:45:12.211Z,1.33
2022-09-15T20:47:40.092Z,1.60
2022-09-15T20:50:10.718Z,1.23
2022-09-15T20:52:38.779Z,1.40
2022-09-15T20:55:07.568Z,1.33
2022-09-15T20:57:35.613Z,1.38
2022-09-15T21:00:05.069Z,1.65
2022-09-15T21:02:33.104Z,1.60
2022-09-15T21:05:01.174Z,1.33
2022-09-15T21:07:31.575Z,1.40
2022-09-15T21:09:59.664Z,1.60
2022-09-15T21:12:27.729Z,1.70
2022-09-15T21:14:56.782Z,1.70
2022-09-15T21:17:25.067Z,0.95
2022-09-15T21:19:53.104Z,1.27
2022-09-15T21:22:21.028Z,1.27
2022-09-15T21:24:50.287Z,1.40
2022-09-15T21:27:30.743Z,1.30
2022-09-15T21:29:59.184Z,1.33
2022-09-15T21:32:27.087Z,1.30
2022-09-15T21:34:56.014Z,1.40
2022-09-15T21:37:26.894Z,1.10
2022-09-15T21:39:57.104Z,1.30
2022-09-15T21:42:25.180Z,1.35
2022-09-15T21:44:53.484Z,1.23
2022-09-15T21:47:21.536Z,1.27
2022-09-15T21:49:50.655Z,1.40
2022-09-15T21:52:18.767Z,1.50
2022-09-15T21:54:46.811Z,1.52
2022-09-15T21:57:16.153Z,1.52
2022-09-15T21:59:44.247Z,1.67
2022-09-15T22:02:12.367Z,1.38
2022-09-15T22:04:40.420Z,1.42
2022-09-15T22:07:09.788Z,1.40
2022-09-15T22:09:53.386Z,1.50
2022-09-15T22:12:23.023Z,1.30
2022-09-15T22:14:50.880Z,1.48
2022-09-15T22:17:18.918Z,1.77
2022-09-15T22:19:46.830Z,1.60
2022-09-15T22:22:14.663Z,1.15
2022-09-15T22:24:42.732Z,1.30
2022-09-15T22:27:10.885Z,1.50
2022-09-15T22:29:40.210Z,1.77
2022-09-15T22:32:08.081Z,1.60
2022-09-15T22:34:35.901Z,1.63
2022-09-15T22:37:03.901Z,1.63
2022-09-15T22:39:57.401Z,1.30
2022-09-15T22:42:19.796Z,1.33
2022-09-15T22:44:49.008Z,1.30
2022-09-15T22:47:17.213Z,1.65
2022-09-15T22:49:45.296Z,1.35
2022-09-15T22:52:13.302Z,1.45
2022-09-15T22:54:41.205Z,1.42
2022-09-15T22:57:09.107Z,1.58
2022-09-15T22:59:37.022Z,1.50
2022-09-15T23:02:06.342Z,1.60
2022-09-15T23:04:34.413Z,1.35
2022-09-15T23:07:02.456Z,1.40
2022-09-15T23:09:30.514Z,1.30
2022-09-15T23:11:58.479Z,1.38
2022-09-15T23:14:26.581Z,1.30
2022-09-15T23:16:54.715Z,1.45
2022-09-15T23:19:24.177Z,1.20
2022-09-15T23:21:52.249Z,1.50
2022-09-15T23:24:20.736Z,1.50
2022-09-15T23:26:48.825Z,1.30
2022-09-15T23:29:16.886Z,1.40
2022-09-15T23:31:45.184Z,1.35
2022-09-15T23:34:13.105Z,1.35
2022-09-15T23:36:42.297Z,1.20
2022-09-15T23:39:10.423Z,1.52
2022-09-15T23:41:39.233Z,1.50
2022-09-15T23:44:07.178Z,1.05
2022-09-15T23:46:35.462Z,1.30
2022-09-15T23:49:03.575Z,1.30
2022-09-15T23:51:31.801Z,1.75
2022-09-15T23:54:01.933Z,1.63
2022-09-15T23:56:29.906Z,1.30
2022-09-15T23:58:58.017Z,1.73
